sensor_id;sensor_type;location;lat;lon;timestamp;pressure;altitude;pressure_sealevel;temperature;humidity
52797;BME280;38666;43.348;12.584;2022-12-20T06:54:44;96954.69;;;6.07;100.00
52797;BME280;38666;43.348;12.584;2022-12-20T06:57:09;96946.56;;;6.07;100.00
52797;BME280;38666;43.348;12.584;2022-12-20T06:59:35;96944.63;;;6.08;100.00
52797;BME280;38666;43.348;12.584;2022-12-20T07:02:00;96947.81;;;6.22;100.00
52797;BME280;38666;43.348;12.584;2022-12-20T07:04:26;96950.16;;;6.36;100.00
52797;BME280;38666;43.348;12.584;2022-12-20T07:06:52;96953.09;;;6.44;100.00
52797;BME280;38666;43.348;12.584;2022-12-20T07:09:17;96954.69;;;6.45;100.00
52797;BME280;38666;43.348;12.584;2022-12-20T07:11:42;96949.81;;;6.50;100.00
52797;BME280;38666;43.348;12.584;2022-12-20T07:14:08;96946.09;;;6.55;100.00
52797;BME280;38666;43.348;12.584;2022-12-20T07:16:34;96950.13;;;6.61;100.00
52797;BME280;38666;43.348;12.584;2022-12-20T07:19:00;96957.81;;;6.72;100.00
52797;BME280;38666;43.348;12.584;2022-12-20T07:21:26;96948.41;;;6.82;100.00
52797;BME280;38666;43.348;12.584;2022-12-20T07:23:54;96952.75;;;6.99;100.00
52797;BME280;38666;43.348;12.584;2022-12-20T07:26:19;96944.75;;;6.90;100.00
52797;BME280;38666;43.348;12.584;2022-12-20T07:28:45;96937.78;;;7.05;100.00
52797;BME280;38666;43.348;12.584;2022-12-20T07:31:10;96948.19;;;7.16;99.99
52797;BME280;38666;43.348;12.584;2022-12-20T07:33:35;96945.59;;;7.35;100.00
52797;BME280;38666;43.348;12.584;2022-12-20T07:36:10;96947.91;;;7.50;97.55
52797;BME280;38666;43.348;12.584;2022-12-20T07:38:36;96944.34;;;7.94;94.09
52797;BME280;38666;43.348;12.584;2022-12-20T07:41:12;96959.25;;;8.00;91.30
52797;BME280;38666;43.348;12.584;2022-12-20T07:43:38;96941.56;;;8.06;88.31
52797;BME280;38666;43.348;12.584;2022-12-20T07:46:05;96952.22;;;7.67;91.04
52797;BME280;38666;43.348;12.584;2022-12-20T07:48:31;96955.34;;;7.37;93.62
52797;BME280;38666;43.348;12.584;2022-12-20T07:51:01;96947.69;;;7.26;95.97
52797;BME280;38666;43.348;12.584;2022-12-20T07:53:27;96950.47;;;7.14;96.67
52797;BME280;38666;43.348;12.584;2022-12-20T07:55:57;96949.19;;;7.40;94.22
52797;BME280;38666;43.348;12.584;2022-12-20T07:58:25;96952.22;;;7.67;93.30
52797;BME280;38666;43.348;12.584;2022-12-20T08:00:51;96954.78;;;8.24;89.21
52797;BME280;38666;43.348;12.584;2022-12-20T08:03:22;96954.69;;;8.21;87.19
52797;BME280;38666;43.348;12.584;2022-12-20T08:05:54;96961.97;;;8.00;88.03
52797;BME280;38666;43.348;12.584;2022-12-20T08:08:21;96959.44;;;8.07;88.78
52797;BME280;38666;43.348;12.584;2022-12-20T08:10:47;96966.97;;;8.30;87.22
52797;BME280;38666;43.348;12.584;2022-12-20T08:13:14;96958.06;;;8.50;86.15
52797;BME280;38666;43.348;12.584;2022-12-20T08:15:39;96956.94;;;8.67;86.32
52797;BME280;38666;43.348;12.584;2022-12-20T08:18:05;96961.25;;;8.88;83.01
52797;BME280;38666;43.348;12.584;2022-12-20T08:20:31;96953.84;;;9.48;84.25
52797;BME280;38666;43.348;12.584;2022-12-20T08:22:57;96951.97;;;9.95;77.41
52797;BME280;38666;43.348;12.584;2022-12-20T08:25:22;96944.72;;;10.07;78.12
52797;BME280;38666;43.348;12.584;2022-12-20T08:27:48;96949.41;;;10.57;74.18
52797;BME280;38666;43.348;12.584;2022-12-20T08:30:14;96946.44;;;10.69;73.66
52797;BME280;38666;43.348;12.584;2022-12-20T08:32:39;96946.41;;;10.97;71.42
52797;BME280;38666;43.348;12.584;2022-12-20T08:35:05;96952.19;;;10.37;73.88
52797;BME280;38666;43.348;12.584;2022-12-20T08:37:31;96961.34;;;10.21;74.68
52797;BME280;38666;43.348;12.584;2022-12-20T08:39:57;96948.91;;;10.01;75.32
52797;BME280;38666;43.348;12.584;2022-12-20T08:42:23;96953.72;;;9.84;77.15
52797;BME280;38666;43.348;12.584;2022-12-20T08:44:48;96956.25;;;9.96;76.91
52797;BME280;38666;43.348;12.584;2022-12-20T08:47:14;96950.34;;;10.68;72.26
52797;BME280;38666;43.348;12.584;2022-12-20T08:49:39;96948.91;;;10.51;72.44
52797;BME280;38666;43.348;12.584;2022-12-20T08:52:05;96950.38;;;11.03;69.84
52797;BME280;38666;43.348;12.584;2022-12-20T08:54:30;96949.81;;;10.86;69.23
52797;BME280;38666;43.348;12.584;2022-12-20T08:56:56;96957.03;;;11.02;71.45
52797;BME280;38666;43.348;12.584;2022-12-20T08:59:21;96949.91;;;11.28;69.07
52797;BME280;38666;43.348;12.584;2022-12-20T09:01:46;96949.91;;;11.28;69.95
52797;BME280;38666;43.348;12.584;2022-12-20T09:04:12;96945.31;;;11.36;69.97
52797;BME280;38666;43.348;12.584;2022-12-20T09:06:38;96951.75;;;11.54;68.97
52797;BME280;38666;43.348;12.584;2022-12-20T09:09:05;96947.53;;;11.61;68.68
52797;BME280;38666;43.348;12.584;2022-12-20T09:11:31;96953.91;;;11.76;66.68
52797;BME280;38666;43.348;12.584;2022-12-20T09:13:57;96953.03;;;11.64;69.39
52797;BME280;38666;43.348;12.584;2022-12-20T09:16:29;96952.47;;;11.89;67.68
52797;BME280;38666;43.348;12.584;2022-12-20T09:18:56;96949.41;;;11.95;67.97
52797;BME280;38666;43.348;12.584;2022-12-20T09:21:22;96946.94;;;11.82;66.97
52797;BME280;38666;43.348;12.584;2022-12-20T09:23:53;96952.34;;;11.75;67.12
52797;BME280;38666;43.348;12.584;2022-12-20T09:26:20;96950.31;;;12.10;66.19
52797;BME280;38666;43.348;12.584;2022-12-20T09:28:46;96947.13;;;12.08;66.25
52797;BME280;38666;43.348;12.584;2022-12-20T09:31:14;96940.84;;;12.00;65.89
52797;BME280;38666;43.348;12.584;2022-12-20T09:33:40;96954.53;;;12.52;64.73
52797;BME280;38666;43.348;12.584;2022-12-20T09:36:06;96944.53;;;12.86;63.19
52797;BME280;38666;43.348;12.584;2022-12-20T09:38:34;96945.47;;;13.16;63.38
52797;BME280;38666;43.348;12.584;2022-12-20T09:41:03;96942.41;;;13.43;60.65
52797;BME280;38666;43.348;12.584;2022-12-20T09:43:29;96938.59;;;13.66;61.96
52797;BME280;38666;43.348;12.584;2022-12-20T09:45:59;96934.97;;;14.78;58.84
52797;BME280;38666;43.348;12.584;2022-12-20T09:48:29;96929.34;;;15.90;54.61
52797;BME280;38666;43.348;12.584;2022-12-20T10:01:21;96909.38;;;19.79;42.83
52797;BME280;38666;43.348;12.584;2022-12-20T10:03:48;96896.81;;;20.41;40.88
52797;BME280;38666;43.348;12.584;2022-12-20T10:09:04;96904.66;;;20.89;41.23
52797;BME280;38666;43.348;12.584;2022-12-20T10:17:57;96892.31;;;19.64;42.51
52797;BME280;38666;43.348;12.584;2022-12-20T10:23:27;96892.78;;;20.59;41.32
52797;BME280;38666;43.348;12.584;2022-12-20T10:25:56;96887.56;;;22.47;37.20
52797;BME280;38666;43.348;12.584;2022-12-20T10:28:33;96878.59;;;23.83;34.68
52797;BME280;38666;43.348;12.584;2022-12-20T10:31:02;96870.88;;;23.97;33.29
52797;BME280;38666;43.348;12.584;2022-12-20T10:33:30;96867.25;;;22.82;34.96
52797;BME280;38666;43.348;12.584;2022-12-20T10:36:16;96872.03;;;23.04;35.42
52797;BME280;38666;43.348;12.584;2022-12-20T10:38:44;96870.16;;;22.20;36.28
52797;BME280;38666;43.348;12.584;2022-12-20T10:41:16;96867.06;;;22.41;36.04
52797;BME280;38666;43.348;12.584;2022-12-20T10:43:45;96866.22;;;21.17;38.61
52797;BME280;38666;43.348;12.584;2022-12-20T10:46:13;96869.81;;;19.95;40.48
52797;BME280;38666;43.348;12.584;2022-12-20T10:48:45;96862.47;;;18.12;45.16
52797;BME280;38666;43.348;12.584;2022-12-20T10:53:57;96860.09;;;16.72;48.13
52797;BME280;38666;43.348;12.584;2022-12-20T10:56:28;96856.66;;;16.65;49.38
52797;BME280;38666;43.348;12.584;2022-12-20T11:01:42;96853.50;;;16.63;50.02
52797;BME280;38666;43.348;12.584;2022-12-20T11:06:58;96842.72;;;16.02;52.40
52797;BME280;38666;43.348;12.584;2022-12-20T11:09:35;96843.72;;;15.73;53.14
52797;BME280;38666;43.348;12.584;2022-12-20T11:12:12;96837.81;;;15.71;53.36
52797;BME280;38666;43.348;12.584;2022-12-20T11:14:40;96835.97;;;15.53;53.77
52797;BME280;38666;43.348;12.584;2022-12-20T11:23:20;96818.84;;;15.35;55.47
52797;BME280;38666;43.348;12.584;2022-12-20T11:29:00;96819.06;;;16.05;52.07
52797;BME280;38666;43.348;12.584;2022-12-20T11:37:03;96806.56;;;16.97;50.27
52797;BME280;38666;43.348;12.584;2022-12-20T11:40:02;96805.44;;;16.29;51.91
52797;BME280;38666;43.348;12.584;2022-12-20T11:53:04;96785.25;;;14.98;56.32
52797;BME280;38666;43.348;12.584;2022-12-20T11:55:36;96789.09;;;15.15;55.47
52797;BME280;38666;43.348;12.584;2022-12-20T12:00:35;96784.47;;;16.70;51.53
52797;BME280;38666;43.348;12.584;2022-12-20T12:03:19;96782.34;;;16.81;49.92
52797;BME280;38666;43.348;12.584;2022-12-20T12:05:50;96776.13;;;15.65;52.55
52797;BME280;38666;43.348;12.584;2022-12-20T12:08:20;96770.78;;;15.43;53.94
52797;BME280;38666;43.348;12.584;2022-12-20T12:10:57;96778.31;;;15.35;53.63
52797;BME280;38666;43.348;12.584;2022-12-20T12:13:26;96780.34;;;14.52;57.97
52797;BME280;38666;43.348;12.584;2022-12-20T12:16:18;96771.13;;;14.99;55.52
52797;BME280;38666;43.348;12.584;2022-12-20T12:18:45;96775.31;;;14.36;59.08
52797;BME280;38666;43.348;12.584;2022-12-20T12:21:40;96771.50;;;13.97;60.23
52797;BME280;38666;43.348;12.584;2022-12-20T12:26:45;96762.50;;;13.49;61.08
52797;BME280;38666;43.348;12.584;2022-12-20T12:29:13;96762.50;;;13.42;62.09
52797;BME280;38666;43.348;12.584;2022-12-20T12:45:33;96759.91;;;12.27;67.03
52797;BME280;38666;43.348;12.584;2022-12-20T12:50:50;96759.44;;;12.10;67.94
52797;BME280;38666;43.348;12.584;2022-12-20T12:53:33;96762.47;;;11.94;69.27
52797;BME280;38666;43.348;12.584;2022-12-20T13:06:59;96754.78;;;12.22;68.52
52797;BME280;38666;43.348;12.584;2022-12-20T13:11:55;96753.34;;;12.54;67.69
52797;BME280;38666;43.348;12.584;2022-12-20T13:21:54;96754.22;;;12.76;66.94
52797;BME280;38666;43.348;12.584;2022-12-20T13:27:26;96753.00;;;12.62;67.13
52797;BME280;38666;43.348;12.584;2022-12-20T13:33:02;96747.75;;;12.21;70.96
52797;BME280;38666;43.348;12.584;2022-12-20T13:40:37;96739.03;;;16.51;52.28
52797;BME280;38666;43.348;12.584;2022-12-20T13:43:06;96733.06;;;16.83;50.17
52797;BME280;38666;43.348;12.584;2022-12-20T13:45:37;96728.63;;;15.92;52.70
52797;BME280;38666;43.348;12.584;2022-12-20T13:48:05;96728.00;;;15.35;53.57
52797;BME280;38666;43.348;12.584;2022-12-20T13:50:34;96725.56;;;14.91;56.39
52797;BME280;38666;43.348;12.584;2022-12-20T13:53:05;96720.56;;;14.71;55.78
52797;BME280;38666;43.348;12.584;2022-12-20T13:55:35;96729.38;;;14.37;57.18
52797;BME280;38666;43.348;12.584;2022-12-20T13:58:25;96726.75;;;14.07;59.10
52797;BME280;38666;43.348;12.584;2022-12-20T14:00:52;96720.41;;;14.18;58.48
52797;BME280;38666;43.348;12.584;2022-12-20T14:03:24;96711.44;;;14.89;56.07
52797;BME280;38666;43.348;12.584;2022-12-20T14:05:57;96714.19;;;14.10;58.43
52797;BME280;38666;43.348;12.584;2022-12-20T14:08:26;96707.25;;;13.58;60.99
52797;BME280;38666;43.348;12.584;2022-12-20T14:10:53;96703.47;;;14.38;59.62
52797;BME280;38666;43.348;12.584;2022-12-20T14:13:24;96701.00;;;16.03;52.93
52797;BME280;38666;43.348;12.584;2022-12-20T14:15:50;96710.63;;;16.54;50.95
52797;BME280;38666;43.348;12.584;2022-12-20T14:18:23;96695.16;;;18.65;46.13
52797;BME280;38666;43.348;12.584;2022-12-20T14:20:52;96699.75;;;20.31;42.56
52797;BME280;38666;43.348;12.584;2022-12-20T14:23:21;96698.59;;;21.11;39.82
52797;BME280;38666;43.348;12.584;2022-12-20T14:25:59;96708.19;;;20.41;40.08
52797;BME280;38666;43.348;12.584;2022-12-20T14:28:42;96707.38;;;18.07;44.77
52797;BME280;38666;43.348;12.584;2022-12-20T14:31:32;96715.16;;;16.05;49.75
52797;BME280;38666;43.348;12.584;2022-12-20T14:36:38;96700.00;;;15.86;50.31
52797;BME280;38666;43.348;12.584;2022-12-20T14:39:30;96694.13;;;15.42;51.89
52797;BME280;38666;43.348;12.584;2022-12-20T14:44:26;96692.94;;;16.79;48.90
52797;BME280;38666;43.348;12.584;2022-12-20T14:46:54;96695.50;;;17.45;46.11
52797;BME280;38666;43.348;12.584;2022-12-20T14:49:32;96697.06;;;18.11;44.48
52797;BME280;38666;43.348;12.584;2022-12-20T15:00:28;96692.38;;;15.97;49.48
52797;BME280;38666;43.348;12.584;2022-12-20T15:10:56;96685.81;;;15.87;50.30
52797;BME280;38666;43.348;12.584;2022-12-20T15:13:29;96679.63;;;15.37;51.17
52797;BME280;38666;43.348;12.584;2022-12-20T15:15:57;96680.84;;;14.87;52.38
52797;BME280;38666;43.348;12.584;2022-12-20T15:18:23;96681.25;;;14.06;54.42
52797;BME280;38666;43.348;12.584;2022-12-20T15:20:57;96677.47;;;13.05;58.50
52797;BME280;38666;43.348;12.584;2022-12-20T15:23:24;96682.94;;;12.76;60.96
52797;BME280;38666;43.348;12.584;2022-12-20T15:25:50;96679.00;;;12.66;60.54
52797;BME280;38666;43.348;12.584;2022-12-20T15:28:21;96678.59;;;12.53;60.72
52797;BME280;38666;43.348;12.584;2022-12-20T15:30:48;96673.44;;;12.26;61.74
52797;BME280;38666;43.348;12.584;2022-12-20T15:33:16;96686.63;;;11.95;64.38
52797;BME280;38666;43.348;12.584;2022-12-20T15:35:43;96677.09;;;11.70;64.99
52797;BME280;38666;43.348;12.584;2022-12-20T15:38:13;96682.53;;;11.59;65.97
52797;BME280;38666;43.348;12.584;2022-12-20T15:40:45;96676.59;;;11.50;66.30
52797;BME280;38666;43.348;12.584;2022-12-20T15:43:14;96677.28;;;11.32;67.59
52797;BME280;38666;43.348;12.584;2022-12-20T15:45:41;96668.97;;;11.17;68.42
52797;BME280;38666;43.348;12.584;2022-12-20T15:48:19;96676.75;;;11.15;68.55
52797;BME280;38666;43.348;12.584;2022-12-20T15:50:50;96682.16;;;11.08;69.40
52797;BME280;38666;43.348;12.584;2022-12-20T15:53:19;96678.28;;;11.09;69.84
52797;BME280;38666;43.348;12.584;2022-12-20T15:55:49;96671.97;;;11.01;70.75
52797;BME280;38666;43.348;12.584;2022-12-20T15:58:15;96678.50;;;10.89;72.24
52797;BME280;38666;43.348;12.584;2022-12-20T16:00:40;96678.72;;;10.69;71.69
52797;BME280;38666;43.348;12.584;2022-12-20T16:03:18;96667.84;;;10.77;71.72
52797;BME280;38666;43.348;12.584;2022-12-20T16:05:46;96678.84;;;10.84;71.36
52797;BME280;38666;43.348;12.584;2022-12-20T16:08:11;96670.97;;;10.75;71.23
52797;BME280;38666;43.348;12.584;2022-12-20T16:10:37;96678.66;;;10.62;71.83
52797;BME280;38666;43.348;12.584;2022-12-20T16:13:02;96675.50;;;10.60;71.87
52797;BME280;38666;43.348;12.584;2022-12-20T16:15:28;96676.28;;;10.61;71.52
52797;BME280;38666;43.348;12.584;2022-12-20T16:17:53;96671.59;;;10.57;72.12
52797;BME280;38666;43.348;12.584;2022-12-20T16:20:19;96671.63;;;10.61;72.14
52797;BME280;38666;43.348;12.584;2022-12-20T16:22:44;96678.13;;;10.49;71.46
52797;BME280;38666;43.348;12.584;2022-12-20T16:25:25;96672.13;;;10.36;72.52
52797;BME280;38666;43.348;12.584;2022-12-20T16:27:51;96674.03;;;10.32;72.26
52797;BME280;38666;43.348;12.584;2022-12-20T16:30:17;96681.03;;;10.33;72.13
52797;BME280;38666;43.348;12.584;2022-12-20T16:32:42;96679.75;;;10.19;72.92
52797;BME280;38666;43.348;12.584;2022-12-20T16:35:37;96682.88;;;10.21;73.45
52797;BME280;38666;43.348;12.584;2022-12-20T16:38:03;96680.06;;;10.14;73.63
52797;BME280;38666;43.348;12.584;2022-12-20T16:40:31;96674.94;;;10.09;73.27
52797;BME280;38666;43.348;12.584;2022-12-20T16:42:58;96678.66;;;9.93;73.68
52797;BME280;38666;43.348;12.584;2022-12-20T16:45:28;96681.69;;;9.84;74.63
52797;BME280;38666;43.348;12.584;2022-12-20T16:47:54;96676.13;;;9.77;74.80
52797;BME280;38666;43.348;12.584;2022-12-20T16:50:22;96674.50;;;9.72;75.32
52797;BME280;38666;43.348;12.584;2022-12-20T16:52:49;96672.19;;;9.74;75.27
52797;BME280;38666;43.348;12.584;2022-12-20T16:55:24;96676.34;;;9.65;75.58
52797;BME280;38666;43.348;12.584;2022-12-20T16:57:50;96665.75;;;9.59;76.15
52797;BME280;38666;43.348;12.584;2022-12-20T17:00:21;96671.16;;;9.56;76.19
52797;BME280;38666;43.348;12.584;2022-12-20T17:02:48;96675.41;;;9.53;76.50
52797;BME280;38666;43.348;12.584;2022-12-20T17:05:28;96677.25;;;9.45;76.84
52797;BME280;38666;43.348;12.584;2022-12-20T17:07:55;96682.56;;;9.34;77.53
52797;BME280;38666;43.348;12.584;2022-12-20T17:10:22;96678.50;;;9.24;77.97
52797;BME280;38666;43.348;12.584;2022-12-20T17:12:48;96677.69;;;9.20;78.74
52797;BME280;38666;43.348;12.584;2022-12-20T17:15:20;96683.00;;;9.13;79.40
52797;BME280;38666;43.348;12.584;2022-12-20T17:17:47;96686.16;;;9.15;79.69
52797;BME280;38666;43.348;12.584;2022-12-20T17:20:14;96672.84;;;9.10;79.91
52797;BME280;38666;43.348;12.584;2022-12-20T17:22:40;96674.41;;;9.11;80.03
52797;BME280;38666;43.348;12.584;2022-12-20T17:25:34;96684.81;;;9.05;80.18
52797;BME280;38666;43.348;12.584;2022-12-20T17:27:58;96682.84;;;9.02;80.88
52797;BME280;38666;43.348;12.584;2022-12-20T17:30:24;96681.94;;;8.94;81.04
52797;BME280;38666;43.348;12.584;2022-12-20T17:32:50;96685.38;;;8.91;80.97
52797;BME280;38666;43.348;12.584;2022-12-20T17:35:28;96686.84;;;8.85;81.07
52797;BME280;38666;43.348;12.584;2022-12-20T17:37:54;96686.38;;;8.79;81.17
52797;BME280;38666;43.348;12.584;2022-12-20T17:40:25;96688.16;;;8.71;82.06
52797;BME280;38666;43.348;12.584;2022-12-20T17:42:51;96673.66;;;8.63;82.39
52797;BME280;38666;43.348;12.584;2022-12-20T17:45:31;96675.16;;;8.61;82.73
52797;BME280;38666;43.348;12.584;2022-12-20T17:48:00;96677.00;;;8.57;82.94
52797;BME280;38666;43.348;12.584;2022-12-20T17:50:26;96672.00;;;8.59;83.54
52797;BME280;38666;43.348;12.584;2022-12-20T17:55:24;96679.75;;;8.57;83.78
52797;BME280;38666;43.348;12.584;2022-12-20T17:57:51;96677.00;;;8.57;84.15
52797;BME280;38666;43.348;12.584;2022-12-20T18:00:26;96680.44;;;8.53;85.24
52797;BME280;38666;43.348;12.584;2022-12-20T18:02:52;96681.59;;;8.52;85.08
52797;BME280;38666;43.348;12.584;2022-12-20T18:05:18;96685.75;;;8.46;85.74
52797;BME280;38666;43.348;12.584;2022-12-20T18:07:50;96681.06;;;8.23;85.94
52797;BME280;38666;43.348;12.584;2022-12-20T18:10:16;96684.50;;;8.20;86.12
52797;BME280;38666;43.348;12.584;2022-12-20T18:12:42;96683.63;;;8.16;85.83
52797;BME280;38666;43.348;12.584;2022-12-20T18:15:08;96683.16;;;8.10;86.92
52797;BME280;38666;43.348;12.584;2022-12-20T18:17:35;96678.06;;;8.09;87.34
52797;BME280;38666;43.348;12.584;2022-12-20T18:20:01;96675.63;;;8.03;88.90
52797;BME280;38666;43.348;12.584;2022-12-20T18:22:26;96674.94;;;8.06;88.79
52797;BME280;38666;43.348;12.584;2022-12-20T18:24:51;96678.06;;;8.09;88.90
52797;BME280;38666;43.348;12.584;2022-12-20T18:27:17;96674.94;;;8.06;89.00
52797;BME280;38666;43.348;12.584;2022-12-20T18:29:42;96677.22;;;8.04;89.31
52797;BME280;38666;43.348;12.584;2022-12-20T18:32:08;96674.84;;;8.03;89.92
52797;BME280;38666;43.348;12.584;2022-12-20T18:34:33;96673.69;;;8.04;89.51
52797;BME280;38666;43.348;12.584;2022-12-20T18:36:59;96671.69;;;8.01;90.12
52797;BME280;38666;43.348;12.584;2022-12-20T18:39:26;96672.06;;;7.99;90.38
52797;BME280;38666;43.348;12.584;2022-12-20T18:41:51;96669.72;;;7.98;90.35
52797;BME280;38666;43.348;12.584;2022-12-20T18:44:17;96666.19;;;7.97;90.60
52797;BME280;38666;43.348;12.584;2022-12-20T18:46:42;96678.63;;;7.98;90.79
52797;BME280;38666;43.348;12.584;2022-12-20T18:49:08;96668.03;;;7.93;90.80
52797;BME280;38666;43.348;12.584;2022-12-20T18:51:34;96677.78;;;7.94;91.21
